createdAt,value
2022-10-22T01:25:25.626Z,9.52
2022-10-22T01:28:19.926Z,9.60
2022-10-22T01:30:50.435Z,7.50
2022-10-22T01:33:20.314Z,12.27
2022-10-22T02:32:50.863Z,7.78
2022-10-22T02:35:21.233Z,9.02
2022-10-22T02:37:50.077Z,8.30
2022-10-22T02:40:17.893Z,10.50
2022-10-22T02:42:47.797Z,10.32
2022-10-22T03:44:06.373Z,9.68
2022-10-22T03:46:33.182Z,9.57
2022-10-22T03:48:59.774Z,11.82
2022-10-22T03:51:28.208Z,9.95
2022-10-22T03:53:57.790Z,11.73
2022-10-22T03:56:24.907Z,10.18
2022-10-22T03:58:59.655Z,10.73
2022-10-22T04:01:29.073Z,10.88
2022-10-22T04:03:56.943Z,11.88
2022-10-22T04:06:24.353Z,14.95
2022-10-22T04:08:51.257Z,20.48
2022-10-22T04:11:18.318Z,13.45
2022-10-22T04:13:51.185Z,15.55
2022-10-22T04:16:20.266Z,17.30
2022-10-22T04:18:49.320Z,15.55
2022-10-22T04:21:21.514Z,14.05
2022-10-22T04:23:51.835Z,16.20
2022-10-22T04:26:27.449Z,17.25
2022-10-22T04:28:54.180Z,16.83
2022-10-22T04:31:30.589Z,14.77
2022-10-22T04:34:00.249Z,14.87
2022-10-22T04:39:03.911Z,15.15
2022-10-22T04:41:32.859Z,13.85
2022-10-22T04:44:00.345Z,13.23
2022-10-22T04:59:29.725Z,11.60
2022-10-22T05:02:02.030Z,12.30
2022-10-22T05:04:31.906Z,12.40
2022-10-22T05:06:58.776Z,12.48
2022-10-22T05:09:28.480Z,11.32
2022-10-22T05:12:01.310Z,13.82
2022-10-22T05:14:31.117Z,11.80
2022-10-22T05:16:57.766Z,13.10
2022-10-22T05:19:35.951Z,13.88
2022-10-22T05:22:09.661Z,15.80
2022-10-22T05:41:37.350Z,12.82
2022-10-22T05:44:05.538Z,11.45
2022-10-22T05:46:36.084Z,11.82
2022-10-22T05:49:05.365Z,14.43
2022-10-22T06:07:47.028Z,11.63
2022-10-22T06:18:41.254Z,10.82
2022-10-22T06:21:13.265Z,11.20
2022-10-22T06:23:40.907Z,13.05
2022-10-22T06:26:08.119Z,10.10
2022-10-22T06:28:36.052Z,11.38
2022-10-22T06:31:04.652Z,11.12
2022-10-22T06:33:33.236Z,11.57
2022-10-22T06:36:12.403Z,13.20
2022-10-22T06:38:39.593Z,11.85
2022-10-22T06:41:09.253Z,14.43
2022-10-22T06:43:35.852Z,12.32
2022-10-22T08:36:08.217Z,13.02
2022-10-22T08:38:35.366Z,15.23
2022-10-22T08:41:34.574Z,14.43
2022-10-22T08:44:19.408Z,16.00
2022-10-22T08:47:02.083Z,15.75
2022-10-22T08:49:41.423Z,16.67
2022-10-22T08:52:43.209Z,15.98
2022-10-22T08:55:37.218Z,16.83
2022-10-22T08:58:45.854Z,14.15
2022-10-22T09:01:45.733Z,14.02
2022-10-22T09:18:39.412Z,17.35
2022-10-22T09:24:04.829Z,17.42
2022-10-22T09:26:37.061Z,16.77
2022-10-22T09:54:28.298Z,19.60
2022-10-22T09:57:03.687Z,17.10
2022-10-22T09:59:33.243Z,16.33
2022-10-22T10:02:19.777Z,19.12
2022-10-22T10:04:56.183Z,15.73
2022-10-22T10:07:26.323Z,16.65
2022-10-22T10:09:54.279Z,15.90
2022-10-22T10:12:49.113Z,15.75
2022-10-22T10:15:32.095Z,18.58
2022-10-22T10:18:01.597Z,18.52
2022-10-22T10:20:41.035Z,16.85
2022-10-22T10:23:18.600Z,19.17
2022-10-22T10:50:19.018Z,19.45
2022-10-22T10:53:17.594Z,17.48
2022-10-22T10:56:00.090Z,19.20
2022-10-22T13:29:41.665Z,23.00
2022-10-22T13:32:30.365Z,19.10
2022-10-22T13:35:02.271Z,17.37
2022-10-22T13:37:31.334Z,20.67
2022-10-22T14:58:55.806Z,18.48
2022-10-22T15:01:22.354Z,16.98
2022-10-22T15:42:39.868Z,13.27
2022-10-22T15:45:07.097Z,13.68
2022-10-22T15:47:34.327Z,19.50
2022-10-22T15:50:00.908Z,15.80
2022-10-22T15:52:27.465Z,15.27
2022-10-22T15:54:54.161Z,15.43
2022-10-22T16:03:20.723Z,15.52
2022-10-22T16:05:54.524Z,15.35
2022-10-22T16:08:21.302Z,14.60
2022-10-22T16:10:48.630Z,17.58
2022-10-22T16:13:15.710Z,16.27
2022-10-22T16:15:42.351Z,17.23
2022-10-22T16:18:08.876Z,18.17
2022-10-22T16:20:42.412Z,17.08
2022-10-22T16:23:09.148Z,17.35
2022-10-22T16:25:39.618Z,20.23
2022-10-22T16:28:06.425Z,19.05
2022-10-22T16:30:34.501Z,18.85
2022-10-22T16:33:03.432Z,21.02
2022-10-22T16:35:30.933Z,24.00
2022-10-22T16:37:57.834Z,20.52
2022-10-22T16:40:24.721Z,20.50
2022-10-22T16:42:51.513Z,20.08
2022-10-22T16:45:18.267Z,24.83
2022-10-22T16:47:47.007Z,25.85
2022-10-22T16:50:19.199Z,22.25
2022-10-22T16:52:54.770Z,20.90
2022-10-22T16:55:29.311Z,23.60
2022-10-22T16:58:04.216Z,24.42
2022-10-22T17:00:33.500Z,22.40
2022-10-22T17:03:00.150Z,20.90
2022-10-22T17:05:26.852Z,21.42
2022-10-22T17:07:53.526Z,20.12
2022-10-22T17:10:26.223Z,20.90
2022-10-22T17:12:52.874Z,21.90
2022-10-22T17:15:19.483Z,23.55
2022-10-22T17:18:35.322Z,21.67
2022-10-22T17:20:35.819Z,20.35
2022-10-22T17:23:09.694Z,23.35
2022-10-22T17:25:45.752Z,21.80
2022-10-22T17:28:21.348Z,26.60
2022-10-22T17:30:51.257Z,23.05
2022-10-22T17:33:20.675Z,26.83
2022-10-22T17:35:49.389Z,23.70
2022-10-22T17:38:15.990Z,24.60
2022-10-22T17:40:42.602Z,31.02
2022-10-22T17:43:09.156Z,28.50
2022-10-22T17:45:36.196Z,26.10
2022-10-22T17:48:02.806Z,21.98
2022-10-22T17:50:29.481Z,24.33
2022-10-22T17:52:56.066Z,25.80
2022-10-22T17:55:22.795Z,24.12
2022-10-22T17:57:49.463Z,23.25
2022-10-22T18:02:59.170Z,21.25
2022-10-22T18:11:28.495Z,24.50
2022-10-22T18:13:56.808Z,23.92
2022-10-22T18:16:26.545Z,24.15
2022-10-22T18:18:56.036Z,30.50
2022-10-22T18:21:27.422Z,24.27
2022-10-22T18:29:19.797Z,27.92
2022-10-22T18:31:47.334Z,27.33
2022-10-22T18:34:15.141Z,26.77
2022-10-22T18:36:42.672Z,24.50
2022-10-22T18:39:14.830Z,55.28
2022-10-22T18:41:42.280Z,40.08
2022-10-22T18:44:11.839Z,31.73
2022-10-22T18:46:39.674Z,29.10
2022-10-22T18:49:07.365Z,27.75
2022-10-22T18:51:35.176Z,29.58
2022-10-22T18:54:22.263Z,24.85
2022-10-22T18:56:49.313Z,29.67
2022-10-22T18:59:24.500Z,33.28
2022-10-22T19:01:55.537Z,30.12
2022-10-22T19:04:22.342Z,30.58
2022-10-22T19:06:49.276Z,27.40
2022-10-22T19:09:16.693Z,29.80
2022-10-22T19:11:46.936Z,26.65
2022-10-22T19:14:15.066Z,26.87
2022-10-22T19:16:41.992Z,26.48
2022-10-22T19:19:08.662Z,28.65
2022-10-22T19:45:04.775Z,27.40
2022-10-22T19:47:31.700Z,24.12
2022-10-22T19:49:58.364Z,25.52
2022-10-22T19:52:25.174Z,26.27
2022-10-22T19:54:51.818Z,25.83
2022-10-22T19:57:18.944Z,26.90
2022-10-22T19:59:45.916Z,28.05
2022-10-22T20:02:17.575Z,24.48
2022-10-22T20:04:49.108Z,29.25
2022-10-22T20:07:16.913Z,30.50
2022-10-22T20:24:11.318Z,28.20
2022-10-22T20:31:48.524Z,30.42
2022-10-22T20:42:15.419Z,24.73
2022-10-22T20:56:54.077Z,28.23
2022-10-22T20:59:21.126Z,23.38
2022-10-22T21:01:51.108Z,27.85
2022-10-22T21:04:20.424Z,28.42
2022-10-22T21:06:48.647Z,29.55
2022-10-22T21:09:15.398Z,24.83
2022-10-22T21:12:03.310Z,26.65
2022-10-22T21:42:18.816Z,25.55
2022-10-22T21:44:45.353Z,25.77
2022-10-22T21:47:11.890Z,27.83
2022-10-22T21:49:38.405Z,25.88
2022-10-22T21:52:07.018Z,25.85
2022-10-22T21:54:35.751Z,25.85
2022-10-22T21:58:17.041Z,26.42
2022-10-22T22:01:12.518Z,29.80
2022-10-22T22:03:42.608Z,26.77
2022-10-22T22:06:09.203Z,26.33
2022-10-22T22:08:36.766Z,25.77
